LFJR

Angers-Loire Airport

Airport
ICAO code
LFJR
IATA Code
ANE
Summary
ICAO Region
EUR
ICAO Territory
Location

Marcé, Pays de la Loire

Serving
Angers
Elevation
194 ft
Coordinates
47° 33' 37" N , 0° 18' 44" W
Metar
LFJR 251430Z AUTO VRB02KT 9999 ///CB 20/12 Q1016

Runways

Designator Length Width Surface Rops
8/26 1800 45 ASP Yes/Yes

Airport map

Aerial View

SKYbrary Partners:

Safety knowledge contributed by: